Time;durP1;ratioP1;P1;durP2;ratioP2;P2;SDS_P1;SDS_P2;PMS_P1;PMS_P2;Temp;Humidity;BMP_temperature;BMP_pressure;BME280_temperature;BME280_humidity;BME280_pressure;Samples;Min_cycle;Max_cycle;Signal;HPM_P1;HPM_P2
2022/06/19 00:01:18;;;;;;;3.00;1.50;;;;;;;;;;4995247;28;20210;-57
2022/06/19 00:03:46;;;;;;;4.33;1.70;;;;;;;;;;4995123;28;20889;-57
2022/06/19 00:06:14;;;;;;;2.60;1.73;;;;;;;;;;4995205;28;20194;-57
2022/06/19 00:08:40;;;;;;;3.27;1.80;;;;;;;;;;4994437;28;20214;-57
2022/06/19 00:11:07;;;;;;;3.77;1.57;;;;;;;;;;4995167;28;20237;-56
2022/06/19 00:13:34;;;;;;;3.40;1.63;;;;;;;;;;4994758;28;20225;-56
2022/06/19 00:16:00;;;;;;;3.23;1.67;;;;;;;;;;4994883;28;20726;-57
2022/06/19 00:18:26;;;;;;;4.07;1.87;;;;;;;;;;4995067;28;20201;-56
2022/06/19 00:20:52;;;;;;;3.83;1.83;;;;;;;;;;4994811;28;20198;-56
2022/06/19 00:23:19;;;;;;;5.83;1.83;;;;;;;;;;4994790;28;20245;-56
2022/06/19 00:25:45;;;;;;;3.10;1.53;;;;;;;;;;4994585;28;20237;-57
2022/06/19 00:28:11;;;;;;;3.63;1.60;;;;;;;;;;4994624;28;20708;-55
2022/06/19 00:30:38;;;;;;;4.70;1.80;;;;;;;;;;4994669;28;20242;-56
2022/06/19 00:33:04;;;;;;;5.80;1.63;;;;;;;;;;4994046;28;20241;-56
2022/06/19 00:35:30;;;;;;;5.00;1.80;;;;;;;;;;4995109;28;20205;-56
2022/06/19 00:37:57;;;;;;;3.43;1.53;;;;;;;;;;4994778;28;20240;-55
2022/06/19 00:40:25;;;;;;;3.90;1.70;;;;;;;;;;4994545;28;20213;-57
2022/06/19 00:42:51;;;;;;;3.33;1.50;;;;;;;;;;4994563;28;20205;-56
2022/06/19 00:45:27;;;;;;;3.53;1.60;;;;;;;;;;4994475;28;20205;-56
2022/06/19 00:47:53;;;;;;;3.53;2.03;;;;;;;;;;4994596;28;20302;-56
2022/06/19 00:50:23;;;;;;;4.10;1.53;;;;;;;;;;4994370;28;20201;-56
2022/06/19 00:52:50;;;;;;;2.47;1.60;;;;;;;;;;4994174;28;20591;-56
2022/06/19 00:55:17;;;;;;;2.90;1.57;;;;;;;;;;4994291;28;20561;-56
2022/06/19 00:57:45;;;;;;;3.97;1.60;;;;;;;;;;4994161;28;20205;-56
2022/06/19 01:00:13;;;;;;;3.87;1.40;;;;;;;;;;4994110;28;20682;-56
2022/06/19 01:02:41;;;;;;;4.40;1.27;;;;;;;;;;4994052;28;20304;-56
2022/06/19 01:05:07;;;;;;;3.37;1.40;;;;;;;;;;4994010;28;20197;-56
2022/06/19 01:07:35;;;;;;;2.97;1.50;;;;;;;;;;4993943;28;20279;-56
2022/06/19 01:10:01;;;;;;;3.57;1.47;;;;;;;;;;4994137;28;20216;-56
2022/06/19 01:12:27;;;;;;;4.03;1.70;;;;;;;;;;4993791;28;20238;-56
2022/06/19 01:14:59;;;;;;;3.57;1.90;;;;;;;;;;4993890;28;20302;-56
2022/06/19 01:17:25;;;;;;;3.50;1.67;;;;;;;;;;4993967;28;20211;-56
2022/06/19 01:19:51;;;;;;;5.20;1.90;;;;;;;;;;4993554;28;20205;-57
2022/06/19 01:22:20;;;;;;;2.00;1.50;;;;;;;;;;4993699;28;20702;-57
2022/06/19 01:24:55;;;;;;;5.37;1.77;;;;;;;;;;4993639;28;20199;-56
2022/06/19 01:30:08;;;;;;;5.50;2.17;;;;;;;;;;4993606;28;20251;-56
2022/06/19 01:32:36;;;;;;;3.23;1.80;;;;;;;;;;4993210;28;20310;-56
2022/06/19 01:35:03;;;;;;;6.63;2.20;;;;;;;;;;4993550;28;20544;-56
2022/06/19 01:37:29;;;;;;;6.20;2.30;;;;;;;;;;4993482;28;20231;-56
2022/06/19 01:39:59;;;;;;;6.13;1.83;;;;;;;;;;4993210;28;20196;-56
2022/06/19 01:42:25;;;;;;;6.17;2.00;;;;;;;;;;4993279;28;20212;-57
2022/06/19 01:44:52;;;;;;;5.97;2.17;;;;;;;;;;4992934;28;20204;-56
2022/06/19 01:47:19;;;;;;;5.90;2.27;;;;;;;;;;4993310;28;20370;-56
2022/06/19 01:49:46;;;;;;;7.33;2.10;;;;;;;;;;4993420;28;20262;-56
2022/06/19 01:52:13;;;;;;;3.23;1.63;;;;;;;;;;4993101;28;20326;-57
2022/06/19 01:54:41;;;;;;;5.67;2.17;;;;;;;;;;4993160;28;20230;-56
2022/06/19 01:57:10;;;;;;;4.87;2.37;;;;;;;;;;4993323;28;20230;-56
2022/06/19 01:59:36;;;;;;;10.57;2.10;;;;;;;;;;4993237;28;20206;-56
2022/06/19 02:02:04;;;;;;;6.07;2.07;;;;;;;;;;4993016;28;20206;-56
2022/06/19 02:04:30;;;;;;;6.67;1.97;;;;;;;;;;4991347;28;20294;-56
2022/06/19 02:06:59;;;;;;;7.53;2.53;;;;;;;;;;4992887;28;20196;-56
2022/06/19 02:09:25;;;;;;;9.20;2.43;;;;;;;;;;4992772;28;20347;-56
2022/06/19 02:11:52;;;;;;;7.07;2.40;;;;;;;;;;4992795;28;20713;-56
2022/06/19 02:14:20;;;;;;;9.30;2.80;;;;;;;;;;4992802;28;20190;-57
2022/06/19 02:16:47;;;;;;;7.90;3.00;;;;;;;;;;4992705;28;20252;-57
2022/06/19 02:19:13;;;;;;;9.07;2.73;;;;;;;;;;4992850;28;20205;-57
2022/06/19 02:21:41;;;;;;;6.47;2.20;;;;;;;;;;4992509;28;20259;-57
2022/06/19 02:24:07;;;;;;;8.50;2.60;;;;;;;;;;4992614;28;20196;-57
2022/06/19 02:26:35;;;;;;;8.30;2.90;;;;;;;;;;4992474;28;20353;-57
2022/06/19 02:29:01;;;;;;;9.50;2.60;;;;;;;;;;4992189;28;20202;-57
2022/06/19 02:31:29;;;;;;;8.60;2.87;;;;;;;;;;4992344;28;20579;-57
2022/06/19 02:33:56;;;;;;;6.33;2.20;;;;;;;;;;4992525;28;20616;-57
2022/06/19 02:36:40;;;;;;;11.47;3.00;;;;;;;;;;4992501;28;20226;-57
2022/06/19 02:39:14;;;;;;;10.87;2.80;;;;;;;;;;4992511;28;20624;-58
2022/06/19 02:41:45;;;;;;;8.20;2.53;;;;;;;;;;4992446;28;20205;-57
2022/06/19 02:44:11;;;;;;;10.63;2.70;;;;;;;;;;4990801;28;20253;-57
2022/06/19 02:46:38;;;;;;;8.00;2.77;;;;;;;;;;4992401;28;20204;-57
2022/06/19 02:49:04;;;;;;;8.67;2.80;;;;;;;;;;4992203;28;20208;-57
2022/06/19 02:51:30;;;;;;;10.00;2.90;;;;;;;;;;4992211;28;20202;-57
2022/06/19 02:53:58;;;;;;;9.87;2.90;;;;;;;;;;4991912;28;20211;-57
2022/06/19 02:56:24;;;;;;;8.43;2.73;;;;;;;;;;4992300;28;20200;-57
2022/06/19 02:58:50;;;;;;;8.47;2.73;;;;;;;;;;4992095;28;20198;-57
2022/06/19 03:01:16;;;;;;;9.30;3.23;;;;;;;;;;4992260;28;20195;-57
2022/06/19 03:03:43;;;;;;;7.27;2.50;;;;;;;;;;4990491;28;20202;-57
2022/06/19 03:06:09;;;;;;;12.73;2.73;;;;;;;;;;4992260;28;20203;-57
2022/06/19 03:08:35;;;;;;;12.67;3.17;;;;;;;;;;4992134;28;20603;-57
2022/06/19 03:11:04;;;;;;;11.53;2.90;;;;;;;;;;4992112;28;20895;-57
2022/06/19 03:13:30;;;;;;;7.00;2.80;;;;;;;;;;4992081;28;20265;-57
2022/06/19 03:16:00;;;;;;;10.07;2.90;;;;;;;;;;4992034;28;20202;-57
2022/06/19 03:18:26;;;;;;;7.87;2.70;;;;;;;;;;4992212;28;20213;-57
2022/06/19 03:20:53;;;;;;;10.70;3.03;;;;;;;;;;4991780;28;20206;-57
2022/06/19 03:23:19;;;;;;;6.37;2.70;;;;;;;;;;4991953;28;20202;-57
2022/06/19 03:25:45;;;;;;;8.17;2.80;;;;;;;;;;4991872;28;20272;-57
2022/06/19 03:28:11;;;;;;;7.73;3.00;;;;;;;;;;4991917;28;20286;-56
2022/06/19 03:30:37;;;;;;;5.97;2.50;;;;;;;;;;4991863;28;20245;-56
2022/06/19 03:33:03;;;;;;;7.13;2.53;;;;;;;;;;4991712;28;20696;-58
2022/06/19 03:35:29;;;;;;;7.67;2.80;;;;;;;;;;4991865;28;20222;-57
2022/06/19 03:37:57;;;;;;;11.13;3.57;;;;;;;;;;4991921;28;20768;-57
2022/06/19 03:40:23;;;;;;;6.30;2.93;;;;;;;;;;4991697;28;20202;-57
2022/06/19 03:42:49;;;;;;;8.67;2.90;;;;;;;;;;4992053;28;20194;-57
2022/06/19 03:45:15;;;;;;;7.97;2.70;;;;;;;;;;4992261;28;20195;-57
2022/06/19 03:47:41;;;;;;;9.07;2.73;;;;;;;;;;4991783;28;20213;-57
2022/06/19 03:50:08;;;;;;;10.50;3.10;;;;;;;;;;4991865;28;20213;-57
2022/06/19 03:52:34;;;;;;;11.97;3.37;;;;;;;;;;4991797;28;20317;-57
2022/06/19 03:55:01;;;;;;;7.63;2.50;;;;;;;;;;4991695;28;20780;-57
2022/06/19 03:57:27;;;;;;;7.17;3.00;;;;;;;;;;4991858;28;20202;-55
2022/06/19 03:59:53;;;;;;;7.63;2.90;;;;;;;;;;4991542;28;20198;-56
2022/06/19 04:02:19;;;;;;;8.97;2.90;;;;;;;;;;4991558;28;20195;-57
2022/06/19 04:04:45;;;;;;;10.37;3.20;;;;;;;;;;4991398;28;20225;-57
2022/06/19 04:07:12;;;;;;;11.70;2.83;;;;;;;;;;4993303;28;20592;-57
2022/06/19 04:09:38;;;;;;;6.87;2.70;;;;;;;;;;4995236;28;20591;-57
2022/06/19 04:12:06;;;;;;;6.47;2.70;;;;;;;;;;4994510;28;20215;-57
2022/06/19 04:14:32;;;;;;;7.83;2.83;;;;;;;;;;4995189;28;20220;-55
2022/06/19 04:16:58;;;;;;;9.43;3.00;;;;;;;;;;4995030;28;20202;-56
2022/06/19 04:19:24;;;;;;;9.50;3.30;;;;;;;;;;4995045;28;20618;-56
2022/06/19 04:21:50;;;;;;;9.70;2.83;;;;;;;;;;4995512;28;20282;-56
2022/06/19 04:24:17;;;;;;;8.40;2.80;;;;;;;;;;4995438;28;20268;-56
2022/06/19 04:26:43;;;;;;;8.27;2.70;;;;;;;;;;4994900;28;20222;-56
2022/06/19 04:29:13;;;;;;;9.83;3.03;;;;;;;;;;4994961;28;20294;-56
2022/06/19 04:31:39;;;;;;;10.73;3.03;;;;;;;;;;4994785;28;20245;-56
2022/06/19 04:34:05;;;;;;;9.83;2.80;;;;;;;;;;4995097;28;20233;-56
2022/06/19 04:36:31;;;;;;;9.30;3.30;;;;;;;;;;4993035;28;20182;-56
2022/06/19 04:38:58;;;;;;;11.53;2.70;;;;;;;;;;4992750;28;20596;-56
2022/06/19 04:41:25;;;;;;;7.93;2.90;;;;;;;;;;4994714;28;20203;-56
2022/06/19 04:43:51;;;;;;;12.60;3.67;;;;;;;;;;4994371;28;20209;-57
2022/06/19 04:46:18;;;;;;;8.70;2.50;;;;;;;;;;4994571;28;20215;-57
2022/06/19 04:48:45;;;;;;;12.30;3.60;;;;;;;;;;4994564;28;20249;-57
2022/06/19 04:51:12;;;;;;;8.47;2.63;;;;;;;;;;4994370;28;20233;-57
2022/06/19 04:53:39;;;;;;;7.37;2.40;;;;;;;;;;4994616;28;20230;-56
2022/06/19 04:56:06;;;;;;;5.87;2.43;;;;;;;;;;4994405;28;20248;-57
2022/06/19 04:58:32;;;;;;;9.60;2.80;;;;;;;;;;4994421;28;20220;-57
2022/06/19 05:01:01;;;;;;;5.47;2.27;;;;;;;;;;4994479;28;20226;-56
2022/06/19 05:03:28;;;;;;;8.80;2.70;;;;;;;;;;4994474;28;20216;-56
2022/06/19 05:05:54;;;;;;;7.07;2.70;;;;;;;;;;4993994;28;20659;-57
2022/06/19 05:08:20;;;;;;;6.60;2.80;;;;;;;;;;4994297;28;20198;-57
2022/06/19 05:10:46;;;;;;;9.07;3.00;;;;;;;;;;4994065;28;20214;-57
2022/06/19 05:13:14;;;;;;;10.40;2.90;;;;;;;;;;4993878;28;20233;-56
2022/06/19 05:15:40;;;;;;;8.03;2.70;;;;;;;;;;4994214;28;20225;-57
2022/06/19 05:18:07;;;;;;;8.13;2.70;;;;;;;;;;4992717;28;20647;-57
2022/06/19 05:20:35;;;;;;;6.37;2.70;;;;;;;;;;4994095;28;20198;-57
2022/06/19 05:23:01;;;;;;;6.07;2.50;;;;;;;;;;4992604;28;20298;-57
2022/06/19 05:25:27;;;;;;;9.30;3.27;;;;;;;;;;4993682;28;20296;-57
2022/06/19 05:27:53;;;;;;;6.77;3.40;;;;;;;;;;4993873;28;20669;-57
2022/06/19 05:30:19;;;;;;;8.10;2.70;;;;;;;;;;4993585;28;20251;-57
2022/06/19 05:32:45;;;;;;;7.27;2.70;;;;;;;;;;4993641;28;20801;-57
2022/06/19 05:35:11;;;;;;;7.43;2.60;;;;;;;;;;4993484;28;20245;-57
2022/06/19 05:37:38;;;;;;;7.43;2.60;;;;;;;;;;4993563;28;20220;-57
2022/06/19 05:40:05;;;;;;;8.37;3.00;;;;;;;;;;4993530;28;20203;-57
2022/06/19 05:42:31;;;;;;;8.90;3.03;;;;;;;;;;4993293;28;20191;-57
2022/06/19 05:44:57;;;;;;;6.33;2.30;;;;;;;;;;4993328;28;20293;-57
2022/06/19 05:47:23;;;;;;;9.13;2.70;;;;;;;;;;4993366;28;20290;-57
2022/06/19 05:49:49;;;;;;;8.57;2.63;;;;;;;;;;4993215;28;20675;-56
2022/06/19 05:52:16;;;;;;;6.97;2.37;;;;;;;;;;4993368;28;20737;-56
2022/06/19 05:54:43;;;;;;;8.37;2.37;;;;;;;;;;4993223;28;20204;-57
2022/06/19 05:57:10;;;;;;;5.57;2.63;;;;;;;;;;4993077;28;20665;-57
2022/06/19 05:59:35;;;;;;;9.23;2.43;;;;;;;;;;4993372;28;20220;-56
2022/06/19 06:02:01;;;;;;;7.97;2.50;;;;;;;;;;4993047;28;20260;-57
2022/06/19 06:04:27;;;;;;;9.33;2.80;;;;;;;;;;4993298;28;20223;-57
2022/06/19 06:06:53;;;;;;;4.87;1.90;;;;;;;;;;4992909;28;20275;-57
2022/06/19 06:09:19;;;;;;;5.87;2.00;;;;;;;;;;4992872;28;20213;-57
2022/06/19 06:11:47;;;;;;;8.20;2.67;;;;;;;;;;4992943;28;20664;-57
2022/06/19 06:14:13;;;;;;;8.00;2.50;;;;;;;;;;4992706;28;20220;-57
2022/06/19 06:16:39;;;;;;;8.37;2.50;;;;;;;;;;4992927;28;20775;-57
2022/06/19 06:19:05;;;;;;;7.03;2.63;;;;;;;;;;4992639;28;20272;-57
2022/06/19 06:21:34;;;;;;;6.10;2.57;;;;;;;;;;4992640;28;20206;-57
2022/06/19 06:24:00;;;;;;;6.47;2.07;;;;;;;;;;4992736;28;20209;-57
2022/06/19 06:26:27;;;;;;;5.37;2.13;;;;;;;;;;4992509;28;20719;-57
2022/06/19 06:28:56;;;;;;;6.90;2.40;;;;;;;;;;4991935;28;20198;-56
2022/06/19 06:31:22;;;;;;;10.20;2.87;;;;;;;;;;4992321;28;20252;-57
2022/06/19 06:33:49;;;;;;;6.40;2.20;;;;;;;;;;4992242;28;20236;-58
2022/06/19 06:36:15;;;;;;;10.63;2.97;;;;;;;;;;4991759;28;20210;-58
2022/06/19 06:38:41;;;;;;;5.93;2.23;;;;;;;;;;4992535;28;20635;-58
2022/06/19 06:41:08;;;;;;;7.50;2.37;;;;;;;;;;4991861;28;20204;-57
2022/06/19 06:43:35;;;;;;;6.40;2.20;;;;;;;;;;4992486;28;20294;-58
2022/06/19 06:46:05;;;;;;;5.50;2.40;;;;;;;;;;4992605;28;20288;-58
2022/06/19 06:48:31;;;;;;;5.30;2.17;;;;;;;;;;4992363;28;20205;-57
2022/06/19 06:50:57;;;;;;;7.80;2.63;;;;;;;;;;4992369;28;20252;-57
2022/06/19 06:53:23;;;;;;;6.80;2.23;;;;;;;;;;4992105;28;20230;-59
2022/06/19 06:55:49;;;;;;;7.30;2.40;;;;;;;;;;4992320;28;20857;-57
2022/06/19 06:58:15;;;;;;;7.00;2.40;;;;;;;;;;4992243;28;20681;-57
2022/06/19 07:00:42;;;;;;;5.50;2.30;;;;;;;;;;4992283;28;20218;-58
2022/06/19 07:03:10;;;;;;;7.30;2.53;;;;;;;;;;4990436;28;20198;-57
2022/06/19 07:05:38;;;;;;;7.27;2.67;;;;;;;;;;4992176;28;20202;-57
2022/06/19 07:08:05;;;;;;;7.07;2.37;;;;;;;;;;4992075;28;20209;-57
2022/06/19 07:10:31;;;;;;;10.10;2.70;;;;;;;;;;4991935;28;20538;-57
2022/06/19 07:12:57;;;;;;;7.80;2.80;;;;;;;;;;4991973;28;20320;-57
2022/06/19 07:15:23;;;;;;;8.27;2.73;;;;;;;;;;4992108;28;20194;-57
2022/06/19 07:17:49;;;;;;;7.70;2.87;;;;;;;;;;4992310;28;20233;-58
2022/06/19 07:20:17;;;;;;;9.03;2.80;;;;;;;;;;4991807;28;20619;-56
2022/06/19 07:22:43;;;;;;;6.90;2.23;;;;;;;;;;4992228;28;20226;-58
2022/06/19 07:25:14;;;;;;;7.37;2.70;;;;;;;;;;4991976;28;20669;-57
2022/06/19 07:27:40;;;;;;;6.50;2.17;;;;;;;;;;4993624;28;20205;-57
2022/06/19 07:30:07;;;;;;;9.73;2.67;;;;;;;;;;4992771;28;20238;-57
2022/06/19 07:32:34;;;;;;;8.07;2.90;;;;;;;;;;4993501;28;20226;-57
2022/06/19 07:35:00;;;;;;;6.37;2.30;;;;;;;;;;4992352;28;20410;-58
2022/06/19 07:37:27;;;;;;;11.33;2.40;;;;;;;;;;4992557;28;20207;-57
2022/06/19 07:39:55;;;;;;;7.07;2.87;;;;;;;;;;4992686;28;20213;-58
2022/06/19 07:42:21;;;;;;;7.57;2.60;;;;;;;;;;4995597;28;20206;-57
2022/06/19 07:44:47;;;;;;;7.40;2.30;;;;;;;;;;4995971;28;20198;-57
2022/06/19 07:50:10;;;;;;;7.27;2.40;;;;;;;;;;4995903;28;20221;-58
2022/06/19 07:52:38;;;;;;;9.07;2.77;;;;;;;;;;4995847;28;20227;-58
2022/06/19 07:55:05;;;;;;;7.47;2.60;;;;;;;;;;4995800;28;20253;-57
2022/06/19 07:57:31;;;;;;;10.30;3.13;;;;;;;;;;4996063;28;20672;-58
2022/06/19 07:59:57;;;;;;;9.87;2.80;;;;;;;;;;4995661;28;20204;-58
2022/06/19 08:02:24;;;;;;;10.80;3.30;;;;;;;;;;4995467;28;20199;-58
2022/06/19 08:04:50;;;;;;;9.40;3.07;;;;;;;;;;4995919;28;20255;-57
2022/06/19 08:07:16;;;;;;;9.47;2.83;;;;;;;;;;4995254;28;20204;-57
2022/06/19 08:09:44;;;;;;;10.43;2.70;;;;;;;;;;4995487;28;20675;-57
2022/06/19 08:12:10;;;;;;;7.90;2.40;;;;;;;;;;4995471;28;20212;-57
2022/06/19 08:14:37;;;;;;;7.37;2.70;;;;;;;;;;4995203;28;20260;-58
2022/06/19 08:17:03;;;;;;;7.97;2.80;;;;;;;;;;4995112;28;20196;-58
2022/06/19 08:19:29;;;;;;;8.33;2.87;;;;;;;;;;4994686;28;20243;-57
2022/06/19 08:21:55;;;;;;;7.17;2.67;;;;;;;;;;4994929;28;20218;-58
2022/06/19 08:24:21;;;;;;;9.63;3.00;;;;;;;;;;4994853;28;20271;-58
2022/06/19 08:27:04;;;;;;;7.07;2.57;;;;;;;;;;4994803;28;20329;-57
2022/06/19 08:29:30;;;;;;;7.10;2.80;;;;;;;;;;4994817;28;20231;-58
2022/06/19 08:31:56;;;;;;;9.53;2.67;;;;;;;;;;4994801;28;20583;-57
2022/06/19 08:34:23;;;;;;;9.47;2.83;;;;;;;;;;4994505;28;20283;-58
2022/06/19 08:36:49;;;;;;;8.30;3.20;;;;;;;;;;4994731;28;20210;-58
2022/06/19 08:39:16;;;;;;;8.10;2.63;;;;;;;;;;4994532;28;20269;-58
2022/06/19 08:41:50;;;;;;;7.90;3.00;;;;;;;;;;4994782;28;20724;-59
2022/06/19 08:44:34;;;;;;;7.20;2.60;;;;;;;;;;4994802;28;20205;-58
2022/06/19 08:47:08;;;;;;;6.83;2.57;;;;;;;;;;4994297;28;20214;-59
2022/06/19 08:49:39;;;;;;;8.63;2.43;;;;;;;;;;4992896;28;20205;-58
2022/06/19 08:52:12;;;;;;;8.27;2.47;;;;;;;;;;4994009;28;20198;-58
2022/06/19 08:54:45;;;;;;;6.00;2.70;;;;;;;;;;4994388;28;20202;-58
2022/06/19 08:57:17;;;;;;;9.67;3.00;;;;;;;;;;4993835;28;20202;-56
2022/06/19 08:59:49;;;;;;;7.43;2.70;;;;;;;;;;4993896;28;20203;-56
2022/06/19 09:02:22;;;;;;;8.37;3.10;;;;;;;;;;4994022;28;20205;-56
2022/06/19 09:07:42;;;;;;;6.20;2.63;;;;;;;;;;4994022;28;20197;-59
2022/06/19 09:10:16;;;;;;;8.87;2.90;;;;;;;;;;4993856;28;20212;-55
2022/06/19 09:12:52;;;;;;;9.27;3.27;;;;;;;;;;4993831;28;20312;-56
2022/06/19 09:15:18;;;;;;;7.10;2.70;;;;;;;;;;4994049;28;20586;-57
2022/06/19 09:17:54;;;;;;;9.00;2.87;;;;;;;;;;4993633;28;20198;-57
2022/06/19 09:20:26;;;;;;;8.07;2.57;;;;;;;;;;4993701;28;20226;-57
2022/06/19 09:23:01;;;;;;;6.83;2.67;;;;;;;;;;4993542;28;20190;-57
2022/06/19 09:25:34;;;;;;;9.63;2.90;;;;;;;;;;4993543;28;20279;-56
2022/06/19 09:28:05;;;;;;;7.60;2.90;;;;;;;;;;4993699;28;20199;-56
2022/06/19 09:30:34;;;;;;;7.30;2.60;;;;;;;;;;4993615;28;20281;-57
2022/06/19 09:33:04;;;;;;;7.77;3.20;;;;;;;;;;4993530;28;20315;-71
2022/06/19 09:35:32;;;;;;;9.60;2.97;;;;;;;;;;4993574;28;20208;-70
2022/06/19 09:38:00;;;;;;;6.93;2.40;;;;;;;;;;4993441;28;20202;-58
2022/06/19 09:40:28;;;;;;;8.30;2.90;;;;;;;;;;4993355;28;20205;-58
2022/06/19 09:42:57;;;;;;;6.63;2.40;;;;;;;;;;4993565;28;20563;-57
2022/06/19 09:45:24;;;;;;;9.27;2.83;;;;;;;;;;4993367;28;20203;-60
2022/06/19 09:47:54;;;;;;;12.77;3.10;;;;;;;;;;4993056;28;20208;-57
2022/06/19 09:50:24;;;;;;;8.17;3.07;;;;;;;;;;4992941;28;20334;-58
2022/06/19 09:52:54;;;;;;;6.23;2.73;;;;;;;;;;4993246;28;20263;-58
2022/06/19 09:55:23;;;;;;;10.27;2.83;;;;;;;;;;4993201;28;20209;-57
2022/06/19 09:57:52;;;;;;;7.63;2.53;;;;;;;;;;4993117;28;20197;-56
2022/06/19 10:00:26;;;;;;;7.73;3.33;;;;;;;;;;4992800;28;20206;-56
2022/06/19 10:02:55;;;;;;;7.33;2.60;;;;;;;;;;4992944;28;20568;-57
2022/06/19 10:05:28;;;;;;;7.33;2.53;;;;;;;;;;4992039;28;20191;-56
2022/06/19 10:07:56;;;;;;;6.17;2.40;;;;;;;;;;4992754;28;20209;-56
2022/06/19 10:10:26;;;;;;;8.23;2.80;;;;;;;;;;4992854;28;20718;-57
2022/06/19 10:12:53;;;;;;;6.27;2.50;;;;;;;;;;4993173;28;20330;-56
2022/06/19 10:15:29;;;;;;;7.87;2.20;;;;;;;;;;4992829;28;20204;-57
2022/06/19 10:17:57;;;;;;;4.80;2.03;;;;;;;;;;4992870;28;20210;-57
2022/06/19 10:20:30;;;;;;;8.70;2.53;;;;;;;;;;4991178;28;20335;-56
2022/06/19 10:23:01;;;;;;;7.67;2.60;;;;;;;;;;4992829;28;20202;-57
2022/06/19 10:25:43;;;;;;;7.90;2.83;;;;;;;;;;4992472;28;20763;-57
2022/06/19 10:28:15;;;;;;;9.17;2.80;;;;;;;;;;4992687;28;20208;-57
2022/06/19 10:30:48;;;;;;;8.50;2.47;;;;;;;;;;4992413;28;20365;-56
2022/06/19 10:33:19;;;;;;;6.43;2.40;;;;;;;;;;4992476;28;20239;-56
2022/06/19 10:35:50;;;;;;;6.57;2.53;;;;;;;;;;4992175;28;20616;-56
2022/06/19 10:38:22;;;;;;;6.50;2.20;;;;;;;;;;4992162;28;20736;-56
2022/06/19 10:40:52;;;;;;;8.33;2.57;;;;;;;;;;4992398;28;20201;-56
2022/06/19 10:43:29;;;;;;;7.37;2.40;;;;;;;;;;4992273;28;20208;-56
2022/06/19 10:45:57;;;;;;;6.90;2.30;;;;;;;;;;4992400;28;20207;-57
2022/06/19 10:48:25;;;;;;;6.07;2.73;;;;;;;;;;4992150;28;20286;-57
2022/06/19 10:51:00;;;;;;;6.40;2.50;;;;;;;;;;4992147;28;20202;-56
2022/06/19 10:53:33;;;;;;;7.63;2.30;;;;;;;;;;4992092;28;20306;-56
2022/06/19 10:56:02;;;;;;;8.93;2.57;;;;;;;;;;4992318;28;20297;-57
2022/06/19 10:58:29;;;;;;;8.67;2.63;;;;;;;;;;4992367;28;20297;-57
2022/06/19 11:00:56;;;;;;;7.50;2.40;;;;;;;;;;4992133;28;20236;-57
2022/06/19 11:06:18;;;;;;;6.23;2.47;;;;;;;;;;4992242;28;20333;-57
2022/06/19 11:08:45;;;;;;;8.07;2.30;;;;;;;;;;4992310;28;20223;-58
2022/06/19 11:11:15;;;;;;;5.03;2.43;;;;;;;;;;4991867;28;20198;-56
2022/06/19 11:14:01;;;;;;;6.93;2.17;;;;;;;;;;4991894;28;20253;-57
2022/06/19 11:16:28;;;;;;;7.27;2.30;;;;;;;;;;4992777;28;20301;-57
2022/06/19 11:19:00;;;;;;;4.87;1.97;;;;;;;;;;4996041;28;20672;-57
2022/06/19 11:21:29;;;;;;;3.33;1.83;;;;;;;;;;4996308;28;20256;-57
2022/06/19 11:23:56;;;;;;;6.17;2.30;;;;;;;;;;4995941;28;20202;-57
2022/06/19 11:26:25;;;;;;;4.67;1.87;;;;;;;;;;4995882;28;20216;-57
2022/06/19 11:28:53;;;;;;;6.30;2.30;;;;;;;;;;4996121;28;20201;-57
2022/06/19 11:31:22;;;;;;;5.33;2.20;;;;;;;;;;4995906;28;20323;-57
2022/06/19 11:33:49;;;;;;;6.57;2.13;;;;;;;;;;4995927;28;20232;-57
2022/06/19 11:36:35;;;;;;;6.07;1.97;;;;;;;;;;4995866;28;20236;-57
2022/06/19 11:39:23;;;;;;;4.43;2.20;;;;;;;;;;4996081;28;20228;-56
2022/06/19 11:41:49;;;;;;;6.30;2.33;;;;;;;;;;4985058;28;20890;-58
2022/06/19 11:44:17;;;;;;;6.53;2.20;;;;;;;;;;4995289;28;20201;-59
2022/06/19 11:46:45;;;;;;;6.57;2.10;;;;;;;;;;4995577;28;20206;-59
2022/06/19 11:49:19;;;;;;;6.57;1.93;;;;;;;;;;4995398;28;20624;-59
2022/06/19 11:51:46;;;;;;;5.73;2.10;;;;;;;;;;4995548;28;20215;-59
2022/06/19 11:54:14;;;;;;;6.77;2.20;;;;;;;;;;4995244;28;20683;-59
2022/06/19 11:56:41;;;;;;;5.87;1.90;;;;;;;;;;4995133;28;20244;-59
2022/06/19 11:59:21;;;;;;;6.10;1.87;;;;;;;;;;4995497;28;20231;-58
2022/06/19 12:01:47;;;;;;;6.17;2.23;;;;;;;;;;4995159;28;20677;-59
2022/06/19 12:04:21;;;;;;;6.83;2.00;;;;;;;;;;4995085;28;20555;-59
2022/06/19 12:06:50;;;;;;;5.33;2.20;;;;;;;;;;4994794;28;20199;-58
2022/06/19 12:09:26;;;;;;;4.40;1.63;;;;;;;;;;4994865;28;20209;-58
2022/06/19 12:11:56;;;;;;;6.03;2.17;;;;;;;;;;4995018;28;20288;-59
2022/06/19 12:14:27;;;;;;;5.70;2.17;;;;;;;;;;4994660;28;20228;-58
2022/06/19 12:17:06;;;;;;;4.40;2.03;;;;;;;;;;4994827;28;20284;-60
2022/06/19 12:19:32;;;;;;;4.03;1.90;;;;;;;;;;4994153;28;20696;-59
2022/06/19 12:22:00;;;;;;;3.83;1.90;;;;;;;;;;4994858;28;20201;-60
2022/06/19 12:24:31;;;;;;;5.27;2.07;;;;;;;;;;4994562;28;20198;-59
2022/06/19 12:26:59;;;;;;;5.30;1.90;;;;;;;;;;4994143;28;20309;-59
2022/06/19 12:29:28;;;;;;;5.17;2.00;;;;;;;;;;4994465;28;20212;-59
2022/06/19 12:31:55;;;;;;;4.87;1.83;;;;;;;;;;4994124;28;20284;-59
2022/06/19 12:34:26;;;;;;;5.40;2.30;;;;;;;;;;4994234;28;20240;-59
2022/06/19 12:36:52;;;;;;;7.73;2.20;;;;;;;;;;4994648;28;20205;-59
2022/06/19 12:39:19;;;;;;;5.80;2.07;;;;;;;;;;4994471;28;20626;-59
2022/06/19 12:41:51;;;;;;;4.77;2.10;;;;;;;;;;4994107;28;20204;-59
2022/06/19 12:44:23;;;;;;;4.70;2.00;;;;;;;;;;4994211;28;20485;-59
2022/06/19 12:46:54;;;;;;;6.77;2.30;;;;;;;;;;4994551;28;20205;-59
2022/06/19 12:49:28;;;;;;;4.27;1.77;;;;;;;;;;4994280;28;20267;-59
2022/06/19 12:51:56;;;;;;;4.87;2.07;;;;;;;;;;4992315;28;20731;-59
2022/06/19 12:54:34;;;;;;;5.40;2.40;;;;;;;;;;4994116;28;20220;-60
2022/06/19 12:57:15;;;;;;;4.10;1.93;;;;;;;;;;4994204;28;20694;-59
2022/06/19 12:59:51;;;;;;;5.60;1.80;;;;;;;;;;4990424;28;20233;-58
2022/06/19 13:02:23;;;;;;;7.83;2.07;;;;;;;;;;4993786;28;20201;-58
2022/06/19 13:05:00;;;;;;;5.13;1.93;;;;;;;;;;4993842;28;20192;-59
2022/06/19 13:07:33;;;;;;;4.20;2.23;;;;;;;;;;4993702;28;20288;-60
2022/06/19 13:10:04;;;;;;;4.60;2.30;;;;;;;;;;4993883;28;20259;-58
2022/06/19 13:12:36;;;;;;;5.50;2.10;;;;;;;;;;4993505;28;20296;-59
2022/06/19 13:15:08;;;;;;;5.73;2.27;;;;;;;;;;4993818;28;20194;-59
2022/06/19 13:17:39;;;;;;;5.73;2.00;;;;;;;;;;4993427;28;20260;-59
2022/06/19 13:20:13;;;;;;;4.63;2.10;;;;;;;;;;4993319;28;20203;-59
2022/06/19 13:22:42;;;;;;;4.37;1.80;;;;;;;;;;4993469;28;20213;-60
2022/06/19 13:25:15;;;;;;;7.03;1.93;;;;;;;;;;4993488;28;20207;-60
2022/06/19 13:27:48;;;;;;;5.13;2.03;;;;;;;;;;4993432;28;20202;-62
2022/06/19 13:30:21;;;;;;;6.10;1.93;;;;;;;;;;4993272;28;20716;-59
2022/06/19 13:32:52;;;;;;;5.40;2.37;;;;;;;;;;4993323;28;20221;-60
2022/06/19 13:35:24;;;;;;;5.70;2.33;;;;;;;;;;4993212;28;20309;-60
2022/06/19 13:37:55;;;;;;;5.77;2.47;;;;;;;;;;4993215;28;20199;-58
2022/06/19 13:40:24;;;;;;;4.40;2.03;;;;;;;;;;4992654;28;20214;-61
2022/06/19 13:42:58;;;;;;;6.40;2.37;;;;;;;;;;4993443;28;20203;-59
2022/06/19 13:45:37;;;;;;;6.00;2.20;;;;;;;;;;4993325;28;20660;-59
2022/06/19 13:48:07;;;;;;;3.60;1.80;;;;;;;;;;4993181;28;20231;-59
2022/06/19 13:50:37;;;;;;;4.03;2.03;;;;;;;;;;4993119;28;20218;-59
2022/06/19 13:53:06;;;;;;;4.77;2.00;;;;;;;;;;4993483;28;20222;-59
2022/06/19 13:55:41;;;;;;;5.23;1.83;;;;;;;;;;4992861;28;20202;-61
2022/06/19 13:58:11;;;;;;;6.10;1.80;;;;;;;;;;4993167;28;20208;-59
2022/06/19 14:00:43;;;;;;;4.57;1.90;;;;;;;;;;4992886;28;20213;-60
2022/06/19 14:03:19;;;;;;;3.77;1.80;;;;;;;;;;4991804;28;20206;-60
2022/06/19 14:05:47;;;;;;;4.17;1.77;;;;;;;;;;4992932;28;20198;-60
2022/06/19 14:08:22;;;;;;;3.67;1.80;;;;;;;;;;4992681;28;20194;-60
2022/06/19 14:10:49;;;;;;;4.40;1.80;;;;;;;;;;4992564;28;20206;-59
2022/06/19 14:13:28;;;;;;;2.67;1.30;;;;;;;;;;4992684;28;20226;-59
2022/06/19 14:15:58;;;;;;;2.67;1.57;;;;;;;;;;4992861;28;20207;-60
2022/06/19 14:18:28;;;;;;;2.73;1.40;;;;;;;;;;4992609;28;20252;-60
2022/06/19 14:20:59;;;;;;;3.40;1.63;;;;;;;;;;4992751;28;20202;-59
2022/06/19 14:23:28;;;;;;;2.37;1.50;;;;;;;;;;4992636;28;20664;-59
2022/06/19 14:25:55;;;;;;;2.13;1.27;;;;;;;;;;4992681;28;20218;-59
2022/06/19 14:28:24;;;;;;;5.60;2.27;;;;;;;;;;4992307;28;20683;-59
2022/06/19 14:30:51;;;;;;;3.40;2.10;;;;;;;;;;4992164;28;20309;-59
2022/06/19 14:33:32;;;;;;;2.40;1.40;;;;;;;;;;4992484;28;20230;-59
2022/06/19 14:36:09;;;;;;;2.53;1.27;;;;;;;;;;4992347;28;20575;-59
2022/06/19 14:38:35;;;;;;;3.37;1.50;;;;;;;;;;4992370;28;20206;-59
2022/06/19 14:41:06;;;;;;;3.37;1.30;;;;;;;;;;4992369;28;20701;-60
2022/06/19 14:43:37;;;;;;;3.60;1.70;;;;;;;;;;4992347;28;20191;-59
2022/06/19 14:46:12;;;;;;;6.77;1.40;;;;;;;;;;4992389;28;20202;-59
2022/06/19 14:48:46;;;;;;;2.97;1.63;;;;;;;;;;4992213;28;20194;-59
2022/06/19 14:51:22;;;;;;;3.67;1.70;;;;;;;;;;4991967;28;20573;-59
2022/06/19 14:54:09;;;;;;;3.83;1.77;;;;;;;;;;4992055;28;20226;-59
2022/06/19 14:56:53;;;;;;;2.20;1.40;;;;;;;;;;4987336;28;20285;-58
2022/06/19 14:59:20;;;;;;;2.90;1.47;;;;;;;;;;4992381;28;20664;-59
2022/06/19 15:01:49;;;;;;;4.73;1.50;;;;;;;;;;4992018;28;20202;-60
2022/06/19 15:04:19;;;;;;;3.67;1.70;;;;;;;;;;4992078;28;20193;-59